Terminal Aerodrome Forecast
Issued by NWS

Home | Current Version | Previous Version | Text Only | Print | Product List | Glossary On
Versions: 1 2 3 4 5 6 7 8 9 10 11 12 13
640
FTUS45 KABQ 222344 RRA
TAFTCC
TAF
KTCC 222344Z 2300/2324 25006KT P6SM SCT150
     FM230900 25013KT P6SM SKC
     FM231500 24015G25KT P6SM SKC
     FM231900 25025G35KT P6SM SKC=

USA.gov is the U.S. government's official web portal to all federal, state and local government web resources and services.